createdAt,value
2019-04-19T00:01:57.064Z,25.33
2019-04-19T00:03:53.207Z,35.40
2019-04-19T00:06:19.077Z,33.33
2019-04-19T00:08:34.076Z,32.77
2019-04-19T00:10:31.824Z,33.20
2019-04-19T00:12:34.963Z,32.70
2019-04-19T00:14:27.897Z,32.53
2019-04-19T00:16:29.904Z,37.87
2019-04-19T00:18:32.764Z,33.33
2019-04-19T00:20:59.834Z,29.57
2019-04-19T00:22:52.441Z,32.53
2019-04-19T00:24:43.755Z,34.67
2019-04-19T00:26:46.725Z,30.77
2019-04-19T00:28:54.465Z,29.97
2019-04-19T00:31:04.274Z,32.93
2019-04-19T00:33:11.248Z,32.07
2019-04-19T00:35:00.933Z,30.23
2019-04-19T00:37:03.669Z,29.93
2019-04-19T00:39:33.718Z,31.03
2019-04-19T00:41:40.821Z,35.30
2019-04-19T00:43:55.956Z,34.30
2019-04-19T00:46:05.901Z,26.87
2019-04-19T00:48:02.446Z,30.53
2019-04-19T00:50:11.421Z,32.17
2019-04-19T00:52:13.720Z,32.43
2019-04-19T00:54:13.074Z,35.53
2019-04-19T00:56:13.304Z,35.53
2019-04-19T00:58:16.295Z,32.63
2019-04-19T01:00:20.659Z,28.33
2019-04-19T01:02:20.149Z,35.23
2019-04-19T01:04:25.685Z,30.93
2019-04-19T01:06:32.997Z,35.50
2019-04-19T01:08:29.206Z,36.80
2019-04-19T01:10:43.781Z,33.33
2019-04-19T01:12:52.513Z,29.20
2019-04-19T01:14:48.659Z,40.40
2019-04-19T01:17:04.520Z,32.40
2019-04-19T01:18:55.920Z,34.30
2019-04-19T01:20:52.306Z,36.97
2019-04-19T01:22:58.783Z,28.43
2019-04-19T01:24:58.413Z,29.57
2019-04-19T01:27:00.674Z,29.53
2019-04-19T01:29:08.472Z,32.07
2019-04-19T01:31:13.299Z,38.97
2019-04-19T01:33:10.614Z,30.20
2019-04-19T01:35:15.667Z,29.57
2019-04-19T01:37:21.023Z,31.27
2019-04-19T01:39:32.134Z,31.30
2019-04-19T01:41:37.335Z,32.70
2019-04-19T01:43:49.710Z,34.48
2019-04-19T01:46:14.339Z,33.15
2019-04-19T01:48:31.091Z,28.17
2019-04-19T01:50:55.977Z,29.60
2019-04-19T01:53:03.523Z,29.20
2019-04-19T01:54:54.141Z,31.57
2019-04-19T01:56:56.872Z,33.00
2019-04-19T01:58:57.412Z,27.60
2019-04-19T02:01:00.229Z,36.40
2019-04-19T02:03:04.573Z,31.42
2019-04-19T02:05:10.340Z,30.57
2019-04-19T02:07:13.458Z,27.60
2019-04-19T02:09:25.419Z,32.23
2019-04-19T02:11:47.137Z,29.65
2019-04-19T02:13:51.084Z,29.47
2019-04-19T02:15:48.706Z,32.75
2019-04-19T02:17:51.372Z,26.13
2019-04-19T02:20:00.131Z,33.40
2019-04-19T02:22:02.095Z,33.33
2019-04-19T02:24:02.557Z,31.68
2019-04-19T02:26:09.441Z,36.08
2019-04-19T02:28:11.102Z,30.17
2019-04-19T02:30:19.569Z,32.13
2019-04-19T02:32:30.898Z,32.00
2019-04-19T02:39:01.790Z,36.00
2019-04-19T02:42:54.623Z,36.90
2019-04-19T02:45:03.727Z,51.45
2019-04-19T02:47:24.973Z,41.50
2019-04-19T02:49:23.327Z,39.60
2019-04-19T02:55:35.497Z,56.70
2019-04-19T02:57:48.734Z,46.53
2019-04-19T03:00:04.728Z,40.38
2019-04-19T03:04:39.464Z,42.27
2019-04-19T03:06:08.732Z,41.83
2019-04-19T03:07:57.738Z,49.88
2019-04-19T03:10:00.555Z,50.23
2019-04-19T03:12:16.755Z,44.95
2019-04-19T03:14:22.377Z,36.63
2019-04-19T03:16:31.452Z,39.67
2019-04-19T03:18:35.917Z,42.58
2019-04-19T03:20:36.344Z,39.95
2019-04-19T03:22:39.712Z,40.85
2019-04-19T03:24:47.866Z,44.67
2019-04-19T03:26:47.134Z,43.23
2019-04-19T03:28:44.943Z,38.25
2019-04-19T03:31:08.677Z,39.58
2019-04-19T03:33:09.431Z,36.75
2019-04-19T03:37:08.961Z,43.37
2019-04-19T03:39:20.254Z,47.27
2019-04-19T03:41:18.503Z,52.30
2019-04-19T03:45:36.618Z,47.08
2019-04-19T03:47:45.916Z,38.02
2019-04-19T03:49:57.330Z,37.83
2019-04-19T03:51:57.397Z,96.40
2019-04-19T03:54:06.586Z,52.58
2019-04-19T03:56:01.726Z,43.92
2019-04-19T03:57:51.491Z,45.45
2019-04-19T03:59:45.818Z,46.45
2019-04-19T04:01:52.781Z,44.08
2019-04-19T04:03:56.622Z,45.35
2019-04-19T04:05:56.519Z,38.13
2019-04-19T04:08:10.215Z,46.28
2019-04-19T04:10:29.257Z,37.23
2019-04-19T04:12:49.563Z,35.55
2019-04-19T04:15:03.907Z,38.85
2019-04-19T04:17:16.501Z,36.50
2019-04-19T04:19:18.606Z,43.90
2019-04-19T04:21:27.139Z,40.03
2019-04-19T04:23:31.782Z,41.45
2019-04-19T04:25:36.345Z,36.30
2019-04-19T04:27:48.674Z,37.98
2019-04-19T04:29:41.770Z,40.50
2019-04-19T04:31:48.313Z,36.77
2019-04-19T04:33:54.539Z,44.60
2019-04-19T04:36:04.134Z,37.63
2019-04-19T04:38:03.044Z,40.23
2019-04-19T04:39:53.709Z,40.12
2019-04-19T04:42:09.137Z,40.48
2019-04-19T04:44:18.426Z,37.73
2019-04-19T04:46:32.741Z,37.25
2019-04-19T04:48:40.658Z,39.58
2019-04-19T04:51:01.700Z,44.10
2019-04-19T04:52:51.401Z,38.85
2019-04-19T04:54:58.922Z,38.40
2019-04-19T04:57:32.851Z,38.23
2019-04-19T04:59:30.074Z,46.18
2019-04-19T05:01:44.103Z,41.92
2019-04-19T05:03:55.568Z,38.10
2019-04-19T05:06:02.917Z,38.42
2019-04-19T05:08:03.939Z,38.93
2019-04-19T05:10:08.607Z,38.97
2019-04-19T05:12:14.921Z,35.40
2019-04-19T05:14:11.522Z,43.00
2019-04-19T05:16:21.124Z,40.03
2019-04-19T05:18:26.424Z,47.53
2019-04-19T05:20:23.870Z,38.05
2019-04-19T05:22:22.108Z,37.55
2019-04-19T05:24:35.273Z,45.93
2019-04-19T05:28:37.394Z,35.45
2019-04-19T05:30:38.625Z,39.27
2019-04-19T05:32:34.368Z,31.17
2019-04-19T05:34:52.498Z,28.57
2019-04-19T05:36:54.640Z,35.70
2019-04-19T05:39:06.052Z,36.70
2019-04-19T05:41:27.103Z,36.47
2019-04-19T05:43:54.077Z,35.20
2019-04-19T05:45:56.083Z,36.27
2019-04-19T05:47:33.597Z,33.50
2019-04-19T05:49:45.813Z,32.40
2019-04-19T05:53:41.195Z,35.00
2019-04-19T05:55:38.956Z,34.33
2019-04-19T05:57:59.294Z,29.77
2019-04-19T05:59:54.811Z,30.10
2019-04-19T06:02:02.226Z,33.00
2019-04-19T06:04:11.838Z,29.67
2019-04-19T06:06:20.142Z,31.13
2019-04-19T06:08:08.824Z,26.53
2019-04-19T06:10:06.514Z,29.87
2019-04-19T06:12:12.417Z,30.63
2019-04-19T06:14:32.206Z,27.43
2019-04-19T06:16:30.596Z,24.87
2019-04-19T06:18:46.413Z,30.00
2019-04-19T06:20:57.991Z,29.10
2019-04-19T06:22:58.468Z,26.13
2019-04-19T06:25:01.047Z,29.53
2019-04-19T06:27:13.316Z,25.27
2019-04-19T06:29:10.632Z,31.07
2019-04-19T06:31:24.102Z,26.03
2019-04-19T06:33:18.137Z,26.23
2019-04-19T06:35:16.414Z,25.13
2019-04-19T06:37:15.246Z,25.20
2019-04-19T06:39:12.198Z,23.43
2019-04-19T06:41:18.644Z,26.13
2019-04-19T06:43:32.502Z,24.63
2019-04-19T06:45:35.609Z,21.93
2019-04-19T06:47:32.443Z,25.93
2019-04-19T06:49:31.089Z,24.27
2019-04-19T06:51:41.577Z,27.63
2019-04-19T06:53:44.631Z,21.37
2019-04-19T06:55:44.951Z,22.23
2019-04-19T06:57:54.731Z,22.10
2019-04-19T06:59:57.896Z,26.93
2019-04-19T07:01:55.854Z,23.07
2019-04-19T07:03:55.817Z,23.50
2019-04-19T07:06:14.203Z,22.37
2019-04-19T07:08:47.191Z,22.77
2019-04-19T07:10:37.274Z,21.50
2019-04-19T07:12:32.840Z,20.30
2019-04-19T07:14:19.726Z,19.03
2019-04-19T07:16:41.140Z,23.17
2019-04-19T07:18:33.787Z,112.10
2019-04-19T07:20:33.685Z,20.60
2019-04-19T07:22:50.397Z,17.57
2019-04-19T07:24:53.155Z,22.50
2019-04-19T07:26:56.331Z,26.30
2019-04-19T07:28:40.212Z,26.40
2019-04-19T07:30:49.143Z,24.43
2019-04-19T07:32:55.734Z,22.63
2019-04-19T07:35:02.275Z,21.87
2019-04-19T07:37:17.156Z,24.43
2019-04-19T07:39:13.349Z,19.20
2019-04-19T07:41:36.211Z,26.03
2019-04-19T07:43:22.440Z,22.67
2019-04-19T07:45:39.289Z,23.07
2019-04-19T07:47:45.334Z,25.53
2019-04-19T07:49:44.904Z,29.70
2019-04-19T07:51:53.043Z,20.40
2019-04-19T07:53:49.160Z,26.10
2019-04-19T07:58:30.365Z,21.83
2019-04-19T08:00:31.780Z,19.70
2019-04-19T08:02:36.004Z,22.80
2019-04-19T08:04:40.471Z,28.53
2019-04-19T08:08:47.082Z,19.77
2019-04-19T08:12:45.964Z,17.10
2019-04-19T08:29:00.187Z,44.83
2019-04-19T08:30:59.006Z,21.30
2019-04-19T08:32:58.213Z,16.97
2019-04-19T08:35:02.854Z,19.67
2019-04-19T08:37:10.103Z,14.60
2019-04-19T08:39:26.166Z,21.93
2019-04-19T08:41:23.381Z,42.53
2019-04-19T08:43:36.527Z,24.27
2019-04-19T08:45:38.232Z,18.47
2019-04-19T08:48:07.055Z,16.47
2019-04-19T08:50:22.714Z,19.30
2019-04-19T08:52:33.651Z,19.10
2019-04-19T08:54:53.678Z,16.60
2019-04-19T08:56:44.926Z,16.37
2019-04-19T08:58:55.933Z,18.90
2019-04-19T09:01:10.716Z,18.27
2019-04-19T09:03:03.046Z,17.30
2019-04-19T09:05:09.028Z,18.17
2019-04-19T09:09:19.080Z,14.43
2019-04-19T09:11:21.019Z,17.50
2019-04-19T09:13:28.574Z,20.40
2019-04-19T09:15:28.860Z,16.23
2019-04-19T09:18:13.013Z,19.47
2019-04-19T09:20:05.956Z,14.67
2019-04-19T09:21:38.170Z,14.27
2019-04-19T09:23:38.671Z,15.97
2019-04-19T09:25:50.930Z,13.73
2019-04-19T09:27:59.318Z,15.50
2019-04-19T09:30:04.585Z,16.43
2019-04-19T09:32:00.726Z,14.23
2019-04-19T09:34:01.052Z,16.03
2019-04-19T09:36:03.290Z,18.07
2019-04-19T09:38:11.402Z,14.20
2019-04-19T09:40:10.093Z,14.23
2019-04-19T09:42:19.358Z,15.80
2019-04-19T09:44:20.593Z,13.60
2019-04-19T09:46:16.682Z,17.30
2019-04-19T09:48:36.848Z,18.80
2019-04-19T09:50:38.049Z,15.20
2019-04-19T09:52:51.274Z,14.47
2019-04-19T09:54:51.564Z,15.53
2019-04-19T09:56:52.369Z,14.27
2019-04-19T09:58:49.969Z,20.87
2019-04-19T10:00:43.045Z,15.47
2019-04-19T10:02:51.915Z,21.70
2019-04-19T10:04:48.629Z,15.37
2019-04-19T10:06:51.123Z,14.60
2019-04-19T10:08:53.984Z,14.60
2019-04-19T10:10:56.776Z,14.33
2019-04-19T10:12:58.630Z,16.07
2019-04-19T10:15:00.382Z,13.77
2019-04-19T10:17:09.450Z,14.87
2019-04-19T10:19:11.534Z,17.50
2019-04-19T10:21:31.377Z,15.67
2019-04-19T10:23:29.400Z,20.90
2019-04-19T10:25:35.307Z,17.77
2019-04-19T10:27:37.752Z,15.60
2019-04-19T10:29:43.475Z,14.70
2019-04-19T10:31:50.647Z,13.83
2019-04-19T10:33:57.797Z,20.50
2019-04-19T10:35:55.919Z,14.43
2019-04-19T10:37:57.893Z,15.93
2019-04-19T10:39:59.868Z,13.40
2019-04-19T10:42:02.001Z,14.57
2019-04-19T10:44:12.037Z,15.67
2019-04-19T10:46:08.870Z,16.00
2019-04-19T10:48:11.784Z,21.17
2019-04-19T10:50:27.338Z,13.63
2019-04-19T10:52:22.097Z,13.17
2019-04-19T10:54:24.476Z,12.87
2019-04-19T10:56:38.503Z,19.17
2019-04-19T10:58:40.766Z,13.70
2019-04-19T11:00:43.093Z,13.97
2019-04-19T11:02:46.167Z,15.20
2019-04-19T11:04:48.905Z,14.87
2019-04-19T11:06:53.550Z,13.63
2019-04-19T11:08:56.237Z,16.97
2019-04-19T11:10:58.181Z,12.70
2019-04-19T11:13:00.777Z,15.63
2019-04-19T11:15:04.298Z,14.50
2019-04-19T11:17:07.824Z,14.43
2019-04-19T11:19:17.422Z,15.60
2019-04-19T11:21:13.642Z,18.03
2019-04-19T11:23:15.624Z,15.57
2019-04-19T11:25:17.777Z,13.83
2019-04-19T11:27:19.859Z,14.20
2019-04-19T11:29:21.897Z,15.83
2019-04-19T11:31:37.805Z,15.70
2019-04-19T11:33:39.638Z,15.60
2019-04-19T11:35:46.135Z,18.70
2019-04-19T11:37:49.046Z,14.50
2019-04-19T11:39:51.456Z,17.83
2019-04-19T11:41:53.233Z,18.07
2019-04-19T11:43:55.744Z,17.13
2019-04-19T11:45:57.975Z,15.53
2019-04-19T11:48:00.930Z,16.20
2019-04-19T11:50:03.888Z,14.97
2019-04-19T11:52:10.746Z,16.33
2019-04-19T11:54:12.466Z,16.40
2019-04-19T11:56:45.302Z,15.10
2019-04-19T11:58:38.919Z,14.40
2019-04-19T12:01:00.197Z,14.10
2019-04-19T12:03:02.368Z,14.47
2019-04-19T12:05:12.764Z,14.83
2019-04-19T12:07:10.304Z,14.37
2019-04-19T12:09:12.629Z,14.63
2019-04-19T12:11:19.983Z,12.83
2019-04-19T12:13:21.842Z,14.67
2019-04-19T12:15:29.248Z,13.93
2019-04-19T12:17:31.345Z,16.37
2019-04-19T12:19:39.790Z,13.97
2019-04-19T12:21:37.196Z,13.80
2019-04-19T12:23:39.070Z,16.13
2019-04-19T12:25:41.684Z,15.73
2019-04-19T12:27:43.646Z,13.60
2019-04-19T12:29:48.684Z,13.67
2019-04-19T12:31:49.683Z,16.00
2019-04-19T12:33:51.581Z,16.10
2019-04-19T12:35:53.260Z,15.17
2019-04-19T12:37:57.441Z,14.43
2019-04-19T12:39:59.027Z,15.30
2019-04-19T12:42:01.873Z,14.77
2019-04-19T12:44:04.967Z,15.13
2019-04-19T12:46:07.353Z,16.30
2019-04-19T12:48:09.803Z,14.97
2019-04-19T12:50:13.498Z,16.13
2019-04-19T12:52:15.865Z,18.40
2019-04-19T12:54:18.235Z,17.10
2019-04-19T12:56:20.177Z,17.07
2019-04-19T12:58:22.086Z,15.00
2019-04-19T13:00:26.297Z,14.17
2019-04-19T13:02:35.584Z,17.70
2019-04-19T13:05:16.294Z,16.67
2019-04-19T13:07:18.285Z,14.80
2019-04-19T13:09:21.234Z,14.73
2019-04-19T13:11:23.548Z,14.50
2019-04-19T13:13:25.762Z,16.43
2019-04-19T13:15:27.621Z,13.60
2019-04-19T13:17:30.521Z,21.10
2019-04-19T13:19:33.308Z,14.67
2019-04-19T13:21:36.468Z,13.90
2019-04-19T13:23:38.425Z,14.00
2019-04-19T13:25:41.520Z,16.67
2019-04-19T13:27:50.204Z,13.67
2019-04-19T13:29:47.821Z,15.20
2019-04-19T13:31:49.970Z,14.60
2019-04-19T13:33:53.144Z,17.10
2019-04-19T13:35:55.457Z,14.20
2019-04-19T13:38:15.086Z,15.47
2019-04-19T13:40:35.463Z,15.83
2019-04-19T13:42:37.412Z,13.90
2019-04-19T13:44:39.187Z,14.87
2019-04-19T13:46:40.988Z,13.23
2019-04-19T13:48:43.073Z,15.93
2019-04-19T13:50:47.311Z,14.80
2019-04-19T13:52:48.728Z,12.73
2019-04-19T13:54:50.567Z,16.50
2019-04-19T13:56:52.706Z,13.43
2019-04-19T13:58:55.793Z,15.07
2019-04-19T14:00:58.459Z,15.10
2019-04-19T14:03:01.196Z,13.27
2019-04-19T14:05:03.644Z,12.47
2019-04-19T14:07:05.600Z,13.53
2019-04-19T14:09:09.296Z,18.33
2019-04-19T14:11:11.360Z,13.07
2019-04-19T14:13:13.099Z,13.03
2019-04-19T14:15:15.184Z,12.90
2019-04-19T14:17:17.932Z,14.90
2019-04-19T14:19:20.562Z,12.80
2019-04-19T14:21:22.413Z,15.47
2019-04-19T14:23:24.114Z,13.90
2019-04-19T14:25:27.097Z,11.67
2019-04-19T14:27:29.338Z,14.50
2019-04-19T14:29:31.127Z,14.60
2019-04-19T14:31:32.815Z,12.83
2019-04-19T14:33:34.917Z,12.67
2019-04-19T14:35:37.731Z,12.00
2019-04-19T14:37:41.275Z,11.93
2019-04-19T14:39:44.687Z,11.67
2019-04-19T14:41:47.505Z,12.20
2019-04-19T14:43:50.375Z,12.27
2019-04-19T14:45:52.873Z,13.17
2019-04-19T14:47:55.213Z,12.60
2019-04-19T14:49:57.013Z,12.90
2019-04-19T14:52:00.909Z,12.50
2019-04-19T14:54:02.767Z,12.17
2019-04-19T14:56:04.748Z,13.30
2019-04-19T14:58:06.541Z,13.23
2019-04-19T15:00:09.787Z,13.13
2019-04-19T15:02:16.117Z,12.83
2019-04-19T15:04:24.669Z,13.17
2019-04-19T15:06:28.021Z,13.23
2019-04-19T15:08:30.761Z,13.33
2019-04-19T15:10:33.522Z,15.47
2019-04-19T15:12:36.554Z,14.07
2019-04-19T15:14:38.885Z,13.00
2019-04-19T15:16:41.429Z,12.30
2019-04-19T15:18:45.221Z,12.63
2019-04-19T15:20:57.187Z,12.47
2019-04-19T15:22:52.597Z,15.07
2019-04-19T15:24:54.968Z,12.53
2019-04-19T15:26:57.072Z,14.20
2019-04-19T15:28:58.889Z,11.57
2019-04-19T15:31:00.679Z,11.00
2019-04-19T15:33:02.877Z,12.07
2019-04-19T15:35:05.698Z,13.83
2019-04-19T15:37:07.534Z,13.00
2019-04-19T15:39:10.540Z,13.30
2019-04-19T15:41:12.443Z,11.10
2019-04-19T15:43:15.084Z,13.00
2019-04-19T15:45:20.891Z,13.67
2019-04-19T15:47:22.821Z,10.73
2019-04-19T15:49:25.909Z,11.53
2019-04-19T15:51:32.545Z,14.50
2019-04-19T15:53:31.972Z,12.10
2019-04-19T15:55:34.019Z,13.57
2019-04-19T15:57:36.332Z,12.20
2019-04-19T15:59:39.065Z,11.43
2019-04-19T16:01:57.755Z,9.97
2019-04-19T16:03:59.880Z,10.90
2019-04-19T16:06:11.986Z,13.37
2019-04-19T16:08:34.599Z,19.80
2019-04-19T16:11:00.195Z,12.40
2019-04-19T16:13:02.838Z,13.20
2019-04-19T16:15:06.135Z,13.33
2019-04-19T16:17:09.257Z,13.03
2019-04-19T16:19:12.310Z,10.90
2019-04-19T16:21:23.951Z,13.60
2019-04-19T16:23:18.418Z,10.73
2019-04-19T16:25:21.224Z,11.90
2019-04-19T16:27:23.214Z,13.20
2019-04-19T16:29:35.451Z,12.93
2019-04-19T16:31:28.688Z,13.63
2019-04-19T16:33:31.816Z,14.07
2019-04-19T16:35:34.069Z,13.37
2019-04-19T16:37:37.089Z,13.13
2019-04-19T16:39:39.875Z,12.87
2019-04-19T16:41:42.763Z,10.47
2019-04-19T16:43:44.741Z,11.90
2019-04-19T16:45:49.655Z,21.40
2019-04-19T16:47:51.278Z,14.60
2019-04-19T16:49:54.355Z,13.80
2019-04-19T16:51:58.883Z,10.50
2019-04-19T16:54:00.357Z,12.70
2019-04-19T16:56:03.540Z,12.67
2019-04-19T16:58:06.321Z,12.63
2019-04-19T17:00:09.325Z,9.53
2019-04-19T17:02:11.209Z,8.50
2019-04-19T17:04:13.501Z,10.90
2019-04-19T17:06:15.529Z,9.40
2019-04-19T17:08:17.810Z,10.90
2019-04-19T17:10:20.417Z,12.77
2019-04-19T17:12:24.245Z,9.33
2019-04-19T17:14:27.218Z,9.80
2019-04-19T17:17:04.587Z,8.93
2019-04-19T17:19:11.144Z,9.20
2019-04-19T17:21:15.499Z,10.50
2019-04-19T17:23:18.830Z,12.67
2019-04-19T17:25:21.143Z,10.67
2019-04-19T17:27:28.766Z,12.60
2019-04-19T17:29:26.979Z,11.60
2019-04-19T17:31:29.872Z,9.60
2019-04-19T17:33:32.460Z,10.13
2019-04-19T17:35:34.673Z,10.23
2019-04-19T17:37:36.481Z,11.93
2019-04-19T17:39:38.529Z,16.70
2019-04-19T17:41:40.784Z,14.40
2019-04-19T17:43:43.709Z,13.50
2019-04-19T17:45:46.323Z,11.40
2019-04-19T17:47:48.125Z,10.27
2019-04-19T17:49:51.183Z,9.27
2019-04-19T17:52:01.867Z,9.10
2019-04-19T17:53:58.365Z,9.67
2019-04-19T17:56:01.599Z,18.27
2019-04-19T17:58:05.349Z,12.53
2019-04-19T18:00:08.717Z,8.60
2019-04-19T18:02:11.151Z,9.60
2019-04-19T18:04:13.363Z,10.00
2019-04-19T18:06:16.219Z,8.23
2019-04-19T18:08:24.969Z,9.33
2019-04-19T18:10:26.869Z,10.73
2019-04-19T18:12:25.763Z,12.60
2019-04-19T18:14:27.630Z,14.20
2019-04-19T18:16:30.292Z,11.33
2019-04-19T18:18:41.295Z,10.00
2019-04-19T18:20:36.822Z,10.47
2019-04-19T18:22:51.175Z,8.80
2019-04-19T18:24:50.021Z,11.10
2019-04-19T18:26:46.722Z,10.80
2019-04-19T18:28:49.751Z,9.83
2019-04-19T18:30:55.700Z,8.17
2019-04-19T18:33:02.516Z,12.50
2019-04-19T18:35:07.991Z,7.77
2019-04-19T18:37:08.964Z,10.60
2019-04-19T18:39:11.870Z,13.50
2019-04-19T18:41:15.428Z,9.30
2019-04-19T18:43:27.947Z,9.00
2019-04-19T18:45:25.179Z,10.70
2019-04-19T18:47:25.042Z,9.30
2019-04-19T18:49:27.680Z,11.17
2019-04-19T18:51:36.368Z,11.50
2019-04-19T18:53:40.222Z,9.23
2019-04-19T18:55:43.220Z,11.57
2019-04-19T18:57:44.683Z,10.07
2019-04-19T18:59:51.101Z,9.00
2019-04-19T19:01:49.651Z,13.50
2019-04-19T19:03:51.921Z,12.63
2019-04-19T19:06:00.588Z,15.13
2019-04-19T19:08:01.900Z,11.90
2019-04-19T19:10:03.744Z,9.70
2019-04-19T19:12:11.278Z,9.70
2019-04-19T19:14:10.906Z,11.37
2019-04-19T19:16:18.606Z,9.43
2019-04-19T19:18:17.216Z,8.80
2019-04-19T19:20:24.936Z,11.30
2019-04-19T19:22:35.846Z,9.70
2019-04-19T19:24:53.624Z,9.43
2019-04-19T19:26:49.946Z,9.73
2019-04-19T19:28:38.226Z,11.33
2019-04-19T19:30:40.700Z,11.53
2019-04-19T19:32:49.107Z,11.23
2019-04-19T19:34:47.931Z,11.57
2019-04-19T19:36:52.151Z,9.20
2019-04-19T19:39:00.337Z,12.30
2019-04-19T19:41:11.212Z,10.77
2019-04-19T19:43:26.131Z,13.70
2019-04-19T19:45:20.136Z,8.60
2019-04-19T19:48:08.097Z,10.07
2019-04-19T19:50:18.226Z,10.10
2019-04-19T19:52:16.308Z,11.27
2019-04-19T19:56:29.115Z,9.60
2019-04-19T19:58:17.192Z,12.97
2019-04-19T20:00:22.042Z,10.57
2019-04-19T20:02:25.778Z,12.43
2019-04-19T20:04:19.377Z,31.87
2019-04-19T20:06:24.484Z,10.87
2019-04-19T20:08:31.063Z,8.77
2019-04-19T20:10:34.687Z,13.40
2019-04-19T20:12:35.623Z,9.57
2019-04-19T20:14:37.335Z,13.00
2019-04-19T20:16:39.966Z,10.20
2019-04-19T20:18:45.742Z,11.90
2019-04-19T20:20:46.131Z,10.77
2019-04-19T20:22:50.385Z,9.90
2019-04-19T20:24:59.880Z,21.07
2019-04-19T20:27:06.769Z,94.10
2019-04-19T20:29:03.898Z,14.33
2019-04-19T20:31:05.131Z,12.87
2019-04-19T20:33:10.423Z,12.90
2019-04-19T20:35:16.030Z,10.97
2019-04-19T20:37:17.466Z,14.70
2019-04-19T20:39:24.844Z,10.50
2019-04-19T20:41:22.701Z,10.97
2019-04-19T20:43:39.544Z,17.10
2019-04-19T20:45:36.583Z,13.20
2019-04-19T20:47:33.554Z,14.57
2019-04-19T20:49:41.352Z,10.67
2019-04-19T20:51:53.545Z,12.33
2019-04-19T20:54:10.747Z,12.90
2019-04-19T20:56:33.453Z,15.50
2019-04-19T20:58:20.277Z,13.93
2019-04-19T21:00:10.349Z,13.50
2019-04-19T21:02:21.957Z,11.30
2019-04-19T21:04:17.707Z,11.83
2019-04-19T21:06:27.225Z,14.30
2019-04-19T21:08:24.793Z,15.83
2019-04-19T21:10:27.598Z,10.33
2019-04-19T21:12:31.799Z,11.17
2019-04-19T21:14:38.195Z,19.73
2019-04-19T21:16:37.522Z,14.40
2019-04-19T21:18:39.587Z,13.03
2019-04-19T21:20:42.536Z,12.97
2019-04-19T21:22:44.526Z,11.07
2019-04-19T21:25:04.282Z,13.70
2019-04-19T21:26:51.199Z,11.10
2019-04-19T21:28:55.823Z,11.83
2019-04-19T21:30:59.891Z,10.40
2019-04-19T21:33:06.085Z,13.10
2019-04-19T21:35:09.546Z,12.67
2019-04-19T21:37:10.668Z,14.73
2019-04-19T21:39:15.988Z,13.33
2019-04-19T21:41:22.979Z,13.10
2019-04-19T21:43:21.228Z,13.70
2019-04-19T21:45:28.175Z,14.80
2019-04-19T21:47:28.212Z,11.40
2019-04-19T21:49:30.885Z,15.50
2019-04-19T21:51:35.901Z,11.10
2019-04-19T21:53:41.029Z,11.23
2019-04-19T21:55:44.763Z,14.77
2019-04-19T21:57:46.131Z,11.70
2019-04-19T21:59:48.272Z,11.57
2019-04-19T22:01:51.338Z,12.30
2019-04-19T22:03:57.390Z,13.33
2019-04-19T22:06:00.654Z,13.17
2019-04-19T22:08:02.380Z,14.23
2019-04-19T22:10:05.695Z,12.87
2019-04-19T22:12:08.175Z,10.43
2019-04-19T22:14:13.948Z,12.83
2019-04-19T22:16:14.654Z,12.20
2019-04-19T22:18:16.605Z,22.07
2019-04-19T22:20:22.711Z,12.83
2019-04-19T22:22:26.996Z,14.10
2019-04-19T22:24:32.360Z,13.67
2019-04-19T22:26:34.313Z,14.27
2019-04-19T22:28:33.487Z,14.60
2019-04-19T22:30:40.661Z,14.17
2019-04-19T22:32:48.827Z,12.83
2019-04-19T22:34:42.548Z,15.40
2019-04-19T22:36:47.592Z,13.30
2019-04-19T22:38:54.618Z,12.00
2019-04-19T22:40:52.604Z,14.10
2019-04-19T22:43:01.622Z,12.47
2019-04-19T22:44:58.793Z,12.90
2019-04-19T22:47:01.634Z,12.90
2019-04-19T22:49:08.448Z,13.73
2019-04-19T22:51:10.845Z,13.27
2019-04-19T22:53:10.943Z,11.83
2019-04-19T22:55:16.996Z,13.77
2019-04-19T22:57:21.741Z,13.00
2019-04-19T22:59:21.879Z,13.27
2019-04-19T23:01:38.017Z,14.10
2019-04-19T23:03:41.827Z,15.10
2019-04-19T23:05:46.593Z,16.40
2019-04-19T23:07:50.548Z,14.60
2019-04-19T23:09:50.848Z,15.73
2019-04-19T23:11:53.437Z,26.47
2019-04-19T23:13:55.708Z,54.57
2019-04-19T23:16:04.648Z,26.87
2019-04-19T23:18:03.347Z,15.10
2019-04-19T23:20:05.455Z,15.83
2019-04-19T23:22:08.082Z,14.90
2019-04-19T23:24:12.370Z,13.70
2019-04-19T23:26:22.365Z,13.53
2019-04-19T23:28:26.813Z,14.67
2019-04-19T23:30:27.346Z,15.37
2019-04-19T23:32:29.563Z,15.70
2019-04-19T23:34:31.492Z,15.70
2019-04-19T23:36:33.443Z,14.40
2019-04-19T23:38:35.246Z,18.00
2019-04-19T23:40:39.247Z,12.43
2019-04-19T23:42:42.305Z,12.67
2019-04-19T23:44:46.342Z,14.17
2019-04-19T23:46:49.544Z,18.37
2019-04-19T23:48:55.407Z,16.90
2019-04-19T23:50:55.045Z,15.60
2019-04-19T23:52:59.544Z,15.47
2019-04-19T23:55:02.259Z,12.30
2019-04-19T23:57:14.225Z,18.80
2019-04-19T23:59:12.849Z,18.00
